Time;durP1;ratioP1;P1;durP2;ratioP2;P2;SDS_P1;SDS_P2;PMS_P1;PMS_P2;Temp;Humidity;BMP_temperature;BMP_pressure;BME280_temperature;BME280_humidity;BME280_pressure;Samples;Min_cycle;Max_cycle;Signal;HPM_P1;HPM_P2
2023/10/16 00:00:29;;;;;;;4.80;1.10;;;;;;;;;;103708;1296;547790;-78
2023/10/16 00:03:43;;;;;;;4.80;1.10;;;;;;;;;;103591;1291;548415;-77
2023/10/16 00:07:21;;;;;;;7.70;1.20;;;;;;;;;;103802;1291;547991;-77
2023/10/16 00:10:58;;;;;;;4.80;1.00;;;;;;;;;;103555;1295;547942;-77
2023/10/16 00:14:31;;;;;;;7.40;1.20;;;;;;;;;;104140;1288;544745;-79
2023/10/16 00:28:36;;;;;;;5.90;1.10;;;;;;;;;;104672;1285;553610;-79
2023/10/16 00:31:35;;;;;;;4.40;1.20;;;;;;;;;;103601;1292;547852;-79
2023/10/16 00:35:11;;;;;;;5.60;0.90;;;;;;;;;;103753;1291;548004;-77
2023/10/16 00:38:51;;;;;;;4.90;1.10;;;;;;;;;;103600;1292;548553;-78
2023/10/16 00:42:26;;;;;;;6.30;1.30;;;;;;;;;;103183;1294;547880;-79
2023/10/16 00:46:08;;;;;;;3.90;1.00;;;;;;;;;;103615;1292;548154;-78
2023/10/16 00:49:41;;;;;;;5.50;1.10;;;;;;;;;;103650;1292;547964;-77
2023/10/16 00:53:13;;;;;;;4.50;1.10;;;;;;;;;;103777;1291;545485;-76
2023/10/16 00:57:07;;;;;;;5.30;1.20;;;;;;;;;;103586;1295;548136;-77
2023/10/16 01:00:36;;;;;;;7.20;1.50;;;;;;;;;;103661;1292;547800;-77
2023/10/16 01:04:12;;;;;;;6.90;1.30;;;;;;;;;;103456;1305;548247;-78
2023/10/16 01:07:43;;;;;;;6.30;1.10;;;;;;;;;;104327;1290;546016;-78
2023/10/16 01:11:26;;;;;;;7.40;1.40;;;;;;;;;;103620;1289;547973;-82
2023/10/16 01:15:06;;;;;;;5.70;1.30;;;;;;;;;;103548;1295;548485;-78
2023/10/16 01:18:41;;;;;;;7.30;1.20;;;;;;;;;;103633;1292;547962;-77
2023/10/16 01:22:13;;;;;;;7.60;1.40;;;;;;;;;;103735;1291;545058;-77
2023/10/16 01:25:51;;;;;;;5.90;1.30;;;;;;;;;;103732;1289;544967;-77
2023/10/16 01:29:37;;;;;;;6.90;1.30;;;;;;;;;;103776;1290;548011;-78
2023/10/16 01:33:11;;;;;;;6.60;1.30;;;;;;;;;;103335;1294;547940;-78
2023/10/16 01:36:51;;;;;;;5.60;1.30;;;;;;;;;;103532;1291;547804;-76
2023/10/16 01:40:26;;;;;;;4.70;1.10;;;;;;;;;;103593;1291;548096;-77
2023/10/16 01:44:09;;;;;;;6.20;1.10;;;;;;;;;;103551;1295;548346;-76
2023/10/16 01:47:41;;;;;;;6.60;1.50;;;;;;;;;;103527;1292;546432;-77
2023/10/16 01:51:19;;;;;;;3.70;0.90;;;;;;;;;;104077;1289;544802;-77
2023/10/16 01:54:53;;;;;;;7.00;1.40;;;;;;;;;;103886;1292;547783;-78
2023/10/16 01:58:33;;;;;;;6.20;1.30;;;;;;;;;;103601;1293;548082;-77
2023/10/16 02:02:05;;;;;;;6.10;1.30;;;;;;;;;;103786;1292;545000;-76
2023/10/16 02:05:48;;;;;;;7.00;1.40;;;;;;;;;;103642;1289;547881;-76
2023/10/16 02:09:25;;;;;;;6.90;1.80;;;;;;;;;;103592;1290;548061;-80
2023/10/16 02:12:58;;;;;;;7.40;1.70;;;;;;;;;;104007;1292;544953;-77
2023/10/16 02:16:41;;;;;;;4.40;1.10;;;;;;;;;;103521;1291;547861;-77
2023/10/16 02:20:20;;;;;;;6.80;1.50;;;;;;;;;;103526;1292;548171;-75
2023/10/16 02:23:50;;;;;;;5.50;1.30;;;;;;;;;;103840;1292;544893;-76
2023/10/16 02:27:33;;;;;;;5.90;1.00;;;;;;;;;;103390;1291;548236;-77
2023/10/16 02:31:14;;;;;;;5.90;1.20;;;;;;;;;;103468;1292;547958;-77
2023/10/16 02:45:23;;;;;;;6.50;1.40;;;;;;;;;;104136;1287;553672;-76
2023/10/16 02:48:16;;;;;;;8.30;1.60;;;;;;;;;;103643;1289;547799;-75
2023/10/16 02:51:45;;;;;;;5.40;1.20;;;;;;;;;;103769;1291;545430;-78
2023/10/16 02:55:27;;;;;;;4.60;1.00;;;;;;;;;;103598;1293;548010;-77
2023/10/16 02:59:07;;;;;;;5.30;1.10;;;;;;;;;;104377;1285;545090;-77
2023/10/16 03:02:43;;;;;;;6.60;1.20;;;;;;;;;;103508;1292;547780;-78
2023/10/16 03:06:15;;;;;;;7.00;1.40;;;;;;;;;;104019;1289;545454;-77
2023/10/16 03:09:57;;;;;;;4.60;1.10;;;;;;;;;;103836;1288;547948;-78
2023/10/16 03:13:29;;;;;;;6.90;1.10;;;;;;;;;;104003;1289;544974;-78
2023/10/16 03:17:18;;;;;;;7.80;1.30;;;;;;;;;;103645;1292;545483;-77
2023/10/16 03:21:01;;;;;;;8.50;1.60;;;;;;;;;;103657;1289;548009;-78
2023/10/16 03:34:51;;;;;;;7.60;1.70;;;;;;;;;;104334;1285;551468;-79
2023/10/16 03:37:49;;;;;;;8.00;1.20;;;;;;;;;;103722;1289;548056;-77
2023/10/16 03:41:28;;;;;;;7.80;1.50;;;;;;;;;;103627;1300;547979;-76
2023/10/16 03:45:05;;;;;;;6.40;1.60;;;;;;;;;;103525;1291;548470;-77
2023/10/16 03:48:38;;;;;;;6.60;1.30;;;;;;;;;;103737;1290;544977;-76
2023/10/16 03:52:19;;;;;;;5.60;1.30;;;;;;;;;;103585;1292;548360;-77
2023/10/16 03:55:51;;;;;;;7.20;1.40;;;;;;;;;;103782;1292;544873;-77
2023/10/16 03:59:34;;;;;;;7.20;1.30;;;;;;;;;;103635;1289;545412;-77
2023/10/16 04:03:08;;;;;;;6.10;1.50;;;;;;;;;;103770;1289;545036;-77
2023/10/16 04:06:49;;;;;;;8.00;1.70;;;;;;;;;;104479;1282;547789;-78
2023/10/16 04:10:30;;;;;;;7.30;1.50;;;;;;;;;;104402;1288;544971;-76
2023/10/16 04:14:08;;;;;;;5.60;1.50;;;;;;;;;;103663;1292;548014;-79
2023/10/16 04:17:43;;;;;;;6.40;1.40;;;;;;;;;;103664;1292;547905;-77
2023/10/16 04:24:59;;;;;;;9.40;1.80;;;;;;;;;;103748;1291;545107;-80
2023/10/16 04:29:20;;;;;;;8.50;1.80;;;;;;;;;;103731;1289;547938;-81
2023/10/16 04:42:50;;;;;;;7.10;1.60;;;;;;;;;;104701;1284;554290;-77
2023/10/16 04:45:39;;;;;;;6.90;1.50;;;;;;;;;;103785;1289;544754;-77
2023/10/16 04:49:16;;;;;;;8.20;1.60;;;;;;;;;;103460;1297;546205;-78
2023/10/16 05:00:27;;;;;;;8.10;1.90;;;;;;;;;;103730;1292;545909;-78
2023/10/16 05:04:49;;;;;;;7.20;1.60;;;;;;;;;;103875;1292;549222;-78
2023/10/16 05:07:38;;;;;;;7.40;1.40;;;;;;;;;;103695;1288;547934;-79
2023/10/16 05:18:43;;;;;;;8.60;1.80;;;;;;;;;;103615;1291;548139;-80
2023/10/16 06:15:21;;;;;;;11.70;1.80;;;;;;;;;;105382;1292;545467;-77
2023/10/16 06:18:50;;;;;;;9.30;1.60;;;;;;;;;;105813;1292;547302;-79
2023/10/16 06:22:58;;;;;;;10.20;1.60;;;;;;;;;;106049;1291;545523;-77
2023/10/16 06:26:27;;;;;;;8.20;1.70;;;;;;;;;;106095;1288;545363;-79
2023/10/16 06:29:51;;;;;;;8.20;2.00;;;;;;;;;;105529;1292;547726;-79
2023/10/16 06:33:23;;;;;;;8.10;1.80;;;;;;;;;;104023;1289;548389;-78
2023/10/16 06:37:06;;;;;;;8.90;1.70;;;;;;;;;;103704;1289;546265;-80
2023/10/16 06:40:40;;;;;;;8.90;1.90;;;;;;;;;;103662;1292;547915;-77
2023/10/16 06:44:16;;;;;;;7.40;1.30;;;;;;;;;;103699;1289;547795;-78
2023/10/16 06:47:58;;;;;;;9.70;2.10;;;;;;;;;;103585;1295;547998;-78
2023/10/16 06:51:33;;;;;;;7.40;1.60;;;;;;;;;;103580;1295;547954;-78
2023/10/16 06:55:14;;;;;;;9.70;1.60;;;;;;;;;;103821;1292;547866;-77
2023/10/16 07:09:12;;;;;;;6.60;1.50;;;;;;;;;;104532;1284;553909;-77
2023/10/16 07:12:09;;;;;;;8.00;1.60;;;;;;;;;;103805;1289;548175;-76
2023/10/16 07:16:07;;;;;;;8.60;2.00;;;;;;;;;;103590;1291;548099;-76
2023/10/16 07:19:25;;;;;;;8.90;2.00;;;;;;;;;;103660;1292;547818;-76
2023/10/16 07:22:59;;;;;;;6.50;1.50;;;;;;;;;;103711;1294;545418;-78
2023/10/16 07:26:34;;;;;;;6.30;1.60;;;;;;;;;;103693;1291;544773;-79
2023/10/16 07:30:21;;;;;;;6.30;1.70;;;;;;;;;;103682;1290;545588;-80
2023/10/16 07:33:59;;;;;;;8.00;1.70;;;;;;;;;;103547;1295;548077;-78
2023/10/16 07:37:33;;;;;;;8.40;1.70;;;;;;;;;;103465;1293;548098;-79
2023/10/16 07:41:11;;;;;;;9.30;2.00;;;;;;;;;;103654;1294;546521;-80
2023/10/16 07:44:45;;;;;;;8.60;1.50;;;;;;;;;;103862;1292;547979;-81
2023/10/16 07:48:27;;;;;;;8.30;1.60;;;;;;;;;;103638;1292;548015;-79
2023/10/16 07:52:06;;;;;;;8.90;1.60;;;;;;;;;;103842;1291;545498;-81
2023/10/16 08:06:05;;;;;;;8.80;2.00;;;;;;;;;;104638;1283;553416;-78
2023/10/16 08:12:42;;;;;;;10.80;1.80;;;;;;;;;;103701;1289;548003;-80
2023/10/16 08:16:10;;;;;;;7.60;1.60;;;;;;;;;;103739;1292;544852;-80
2023/10/16 08:19:54;;;;;;;5.40;1.30;;;;;;;;;;103700;1291;547807;-82
2023/10/16 08:23:38;;;;;;;8.50;1.50;;;;;;;;;;103617;1289;547923;-79
2023/10/16 08:27:13;;;;;;;6.30;1.60;;;;;;;;;;103783;1290;547987;-79
2023/10/16 08:34:24;;;;;;;6.60;1.40;;;;;;;;;;103716;1291;546355;-78
2023/10/16 08:38:01;;;;;;;7.10;1.40;;;;;;;;;;104026;1286;547783;-80
2023/10/16 08:45:23;;;;;;;6.40;1.30;;;;;;;;;;103685;1292;548026;-80
2023/10/16 08:48:54;;;;;;;8.20;1.90;;;;;;;;;;103729;1291;545008;-82
2023/10/16 08:52:34;;;;;;;6.10;1.30;;;;;;;;;;103755;1292;547836;-78
2023/10/16 08:56:08;;;;;;;5.70;1.40;;;;;;;;;;103663;1289;548014;-79
2023/10/16 08:59:42;;;;;;;8.00;1.50;;;;;;;;;;103705;1291;545681;-77
2023/10/16 09:03:23;;;;;;;6.40;1.50;;;;;;;;;;103577;1291;548005;-80
2023/10/16 09:06:57;;;;;;;6.80;1.70;;;;;;;;;;103724;1289;544898;-76
2023/10/16 09:21:01;;;;;;;6.60;1.80;;;;;;;;;;104400;1288;553722;-80
2023/10/16 09:24:00;;;;;;;6.50;1.30;;;;;;;;;;103524;1290;547795;-81
2023/10/16 09:38:17;;;;;;;8.00;1.70;;;;;;;;;;104667;1285;550368;-82
2023/10/16 09:44:47;;;;;;;9.80;2.00;;;;;;;;;;103726;1291;548007;-78
2023/10/16 09:59:00;;;;;;;7.50;2.00;;;;;;;;;;106575;1264;550026;-81
2023/10/16 10:02:06;;;;;;;9.20;1.80;;;;;;;;;;103532;1291;548025;-78
2023/10/16 10:06:08;;;;;;;8.20;2.70;;;;;;;;;;104556;1282;548191;-80
2023/10/16 10:19:39;;;;;;;6.70;1.50;;;;;;;;;;104417;1286;553507;-79
2023/10/16 10:22:35;;;;;;;7.90;1.70;;;;;;;;;;103622;1291;548126;-78
2023/10/16 10:26:24;;;;;;;7.40;1.40;;;;;;;;;;103951;1293;546370;-80
2023/10/16 10:29:55;;;;;;;8.10;1.30;;;;;;;;;;103639;1292;548580;-79
2023/10/16 10:33:42;;;;;;;7.70;1.60;;;;;;;;;;103739;1289;547771;-80
2023/10/16 10:37:24;;;;;;;9.40;1.40;;;;;;;;;;103681;1292;546755;-81
2023/10/16 10:41:03;;;;;;;11.20;1.90;;;;;;;;;;103687;1288;547988;-79
2023/10/16 10:54:44;;;;;;;11.10;1.60;;;;;;;;;;104366;1290;553487;-77
2023/10/16 10:57:36;;;;;;;11.10;1.70;;;;;;;;;;103710;1291;544807;-77
2023/10/16 11:01:26;;;;;;;9.80;2.20;;;;;;;;;;103619;1296;548116;-80
2023/10/16 11:04:58;;;;;;;9.30;2.20;;;;;;;;;;103617;1292;547891;-82
2023/10/16 11:08:35;;;;;;;8.80;2.20;;;;;;;;;;103552;1292;548041;-84
2023/10/16 11:12:10;;;;;;;8.40;2.00;;;;;;;;;;103910;1294;547799;-82
2023/10/16 11:15:58;;;;;;;9.70;1.90;;;;;;;;;;103868;1292;546042;-80
2023/10/16 11:19:30;;;;;;;6.40;2.40;;;;;;;;;;103719;1292;546809;-80
2023/10/16 11:22:59;;;;;;;7.60;2.00;;;;;;;;;;103919;1286;548562;-78
2023/10/16 11:26:41;;;;;;;10.50;2.40;;;;;;;;;;103624;1291;547925;-80
2023/10/16 11:30:18;;;;;;;7.30;1.80;;;;;;;;;;103508;1291;548069;-78
2023/10/16 11:34:02;;;;;;;9.90;1.80;;;;;;;;;;103716;1289;546029;-79
2023/10/16 11:37:34;;;;;;;8.90;2.00;;;;;;;;;;103496;1291;548110;-80
2023/10/16 11:51:35;;;;;;;7.50;2.00;;;;;;;;;;104047;1290;553928;-82
2023/10/16 11:54:30;;;;;;;7.70;1.60;;;;;;;;;;105353;1276;547811;-80
2023/10/16 11:58:08;;;;;;;5.70;1.20;;;;;;;;;;103566;1295;548000;-78
2023/10/16 12:01:45;;;;;;;6.10;1.10;;;;;;;;;;103543;1291;547849;-80
2023/10/16 12:05:28;;;;;;;6.20;1.30;;;;;;;;;;103583;1294;547995;-80
2023/10/16 12:09:00;;;;;;;5.10;0.90;;;;;;;;;;103599;1295;548409;-81
2023/10/16 12:12:38;;;;;;;6.20;1.10;;;;;;;;;;103638;1292;547935;-80
2023/10/16 12:16:17;;;;;;;8.10;1.30;;;;;;;;;;103668;1289;547779;-79
2023/10/16 12:19:53;;;;;;;6.00;1.20;;;;;;;;;;103710;1289;547928;-80
2023/10/16 12:23:33;;;;;;;6.80;1.70;;;;;;;;;;103649;1295;547839;-81
2023/10/16 12:27:04;;;;;;;6.00;1.20;;;;;;;;;;103694;1291;547804;-79
2023/10/16 12:30:45;;;;;;;7.50;1.60;;;;;;;;;;103712;1292;548124;-78
2023/10/16 12:34:24;;;;;;;6.20;1.20;;;;;;;;;;103768;1291;547797;-77
2023/10/16 12:38:04;;;;;;;4.70;1.40;;;;;;;;;;104488;1282;547939;-77
2023/10/16 12:41:33;;;;;;;8.40;1.50;;;;;;;;;;103990;1293;545177;-78
2023/10/16 12:45:15;;;;;;;7.40;1.40;;;;;;;;;;103792;1289;547959;-81
2023/10/16 12:59:15;;;;;;;10.10;2.50;;;;;;;;;;104474;1287;553721;-79
2023/10/16 13:02:14;;;;;;;9.40;2.70;;;;;;;;;;103614;1292;548153;-79
2023/10/16 13:05:52;;;;;;;9.70;2.20;;;;;;;;;;103587;1294;547762;-80
2023/10/16 13:09:30;;;;;;;6.90;1.80;;;;;;;;;;103626;1292;548153;-80
2023/10/16 13:13:05;;;;;;;6.80;1.30;;;;;;;;;;103607;1292;547779;-77
2023/10/16 13:16:53;;;;;;;5.70;1.60;;;;;;;;;;103654;1300;547826;-78
2023/10/16 13:20:26;;;;;;;4.80;1.20;;;;;;;;;;103584;1292;547887;-80
2023/10/16 13:23:59;;;;;;;4.80;1.00;;;;;;;;;;103499;1292;548105;-78
2023/10/16 13:27:37;;;;;;;6.30;1.20;;;;;;;;;;103777;1292;547782;-79
2023/10/16 13:31:13;;;;;;;6.00;1.20;;;;;;;;;;103631;1292;546338;-78
2023/10/16 13:34:50;;;;;;;5.90;1.60;;;;;;;;;;103936;1288;548130;-79
2023/10/16 13:38:28;;;;;;;6.10;1.40;;;;;;;;;;103547;1291;547815;-79
2023/10/16 13:42:15;;;;;;;5.30;1.30;;;;;;;;;;103481;1298;546627;-82
2023/10/16 13:56:05;;;;;;;8.30;1.60;;;;;;;;;;104521;1286;550722;-80
2023/10/16 13:59:02;;;;;;;19.50;7.30;;;;;;;;;;103690;1291;548037;-78
2023/10/16 14:02:40;;;;;;;11.60;5.20;;;;;;;;;;103566;1291;547968;-77
2023/10/16 14:06:13;;;;;;;14.80;6.50;;;;;;;;;;103670;1289;545002;-78
2023/10/16 14:20:34;;;;;;;22.30;12.80;;;;;;;;;;104555;1285;553740;-79
2023/10/16 14:34:18;;;;;;;12.70;6.60;;;;;;;;;;104609;1279;553379;-78
2023/10/16 14:47:54;;;;;;;8.40;2.10;;;;;;;;;;104568;1285;553479;-76
2023/10/16 14:51:00;;;;;;;7.90;1.80;;;;;;;;;;104111;1288;545384;-76
2023/10/16 14:54:54;;;;;;;6.40;1.70;;;;;;;;;;103843;1302;545491;-77
2023/10/16 15:08:30;;;;;;;9.90;4.80;;;;;;;;;;104710;1286;553669;-76
2023/10/16 15:11:26;;;;;;;9.90;3.90;;;;;;;;;;103708;1292;545721;-77
2023/10/16 15:15:08;;;;;;;7.20;1.90;;;;;;;;;;103491;1292;549426;-78
2023/10/16 15:18:44;;;;;;;8.10;2.70;;;;;;;;;;103544;1292;546195;-77
2023/10/16 15:22:18;;;;;;;9.40;3.50;;;;;;;;;;103826;1290;547994;-77
2023/10/16 15:25:53;;;;;;;9.10;2.50;;;;;;;;;;103747;1292;544740;-77
2023/10/16 15:29:36;;;;;;;8.50;3.10;;;;;;;;;;103430;1294;547981;-76
2023/10/16 15:33:14;;;;;;;6.80;2.10;;;;;;;;;;103711;1288;548303;-77
2023/10/16 15:36:51;;;;;;;7.30;2.00;;;;;;;;;;103504;1292;548008;-79
2023/10/16 15:51:07;;;;;;;13.10;5.00;;;;;;;;;;106840;1263;549933;-77
2023/10/16 15:54:14;;;;;;;9.70;3.60;;;;;;;;;;103517;1295;548081;-79
2023/10/16 16:08:27;;;;;;;10.50;2.70;;;;;;;;;;106730;1264;553810;-79
2023/10/16 16:11:27;;;;;;;11.20;2.70;;;;;;;;;;103731;1292;546740;-78
2023/10/16 16:14:55;;;;;;;12.60;3.20;;;;;;;;;;103579;1295;548218;-78
2023/10/16 16:18:36;;;;;;;11.10;2.80;;;;;;;;;;103508;1298;545919;-79
2023/10/16 16:22:14;;;;;;;11.00;3.60;;;;;;;;;;103722;1290;547874;-79
2023/10/16 16:25:53;;;;;;;10.00;3.50;;;;;;;;;;103521;1292;547988;-78
2023/10/16 16:29:26;;;;;;;11.60;3.70;;;;;;;;;;103554;1293;548479;-79
2023/10/16 16:33:06;;;;;;;13.70;6.00;;;;;;;;;;103590;1290;548005;-78
2023/10/16 16:47:25;;;;;;;13.40;6.10;;;;;;;;;;104739;1282;553562;-77
2023/10/16 16:50:26;;;;;;;14.20;5.90;;;;;;;;;;103589;1292;547908;-78
2023/10/16 16:54:01;;;;;;;14.90;8.10;;;;;;;;;;103579;1292;548125;-79
2023/10/16 16:57:39;;;;;;;16.70;8.60;;;;;;;;;;103588;1291;547980;-78
2023/10/16 17:11:44;;;;;;;13.20;7.30;;;;;;;;;;104613;1285;551627;-79
2023/10/16 17:14:40;;;;;;;13.20;6.60;;;;;;;;;;103927;1288;548004;-78
2023/10/16 17:18:18;;;;;;;14.00;6.80;;;;;;;;;;103523;1292;547837;-78
2023/10/16 17:32:24;;;;;;;31.90;16.30;;;;;;;;;;104759;1286;553594;-78
2023/10/16 17:45:39;;;;;;;29.40;11.00;;;;;;;;;;104327;1287;553701;-78
2023/10/16 17:48:41;;;;;;;35.40;14.30;;;;;;;;;;103699;1289;545447;-78
2023/10/16 17:52:15;;;;;;;25.30;12.70;;;;;;;;;;104216;1290;547940;-78
2023/10/16 17:55:44;;;;;;;21.60;9.30;;;;;;;;;;103967;1292;544623;-77
2023/10/16 17:59:29;;;;;;;18.40;9.70;;;;;;;;;;103680;1292;545009;-78
2023/10/16 18:03:04;;;;;;;19.20;9.10;;;;;;;;;;103940;1289;544842;-77
2023/10/16 18:06:49;;;;;;;16.10;7.50;;;;;;;;;;103568;1292;548139;-78
2023/10/16 18:10:27;;;;;;;16.20;6.00;;;;;;;;;;103628;1292;547772;-76
2023/10/16 18:13:59;;;;;;;13.10;5.70;;;;;;;;;;103772;1292;548118;-77
2023/10/16 18:17:40;;;;;;;14.70;5.60;;;;;;;;;;103536;1292;547839;-79
2023/10/16 18:21:17;;;;;;;11.30;5.00;;;;;;;;;;103689;1290;547923;-78
2023/10/16 18:24:55;;;;;;;10.40;4.20;;;;;;;;;;103618;1292;548314;-78
2023/10/16 18:28:27;;;;;;;10.40;3.90;;;;;;;;;;103744;1294;545154;-78
2023/10/16 18:32:04;;;;;;;11.50;4.40;;;;;;;;;;103732;1292;544730;-78
2023/10/16 18:46:11;;;;;;;11.90;5.20;;;;;;;;;;104109;1288;553470;-77
2023/10/16 18:49:22;;;;;;;12.20;5.40;;;;;;;;;;103620;1302;548187;-77
2023/10/16 18:52:47;;;;;;;13.90;7.70;;;;;;;;;;103680;1292;548079;-77
2023/10/16 18:56:23;;;;;;;15.20;8.00;;;;;;;;;;103636;1289;548461;-77
2023/10/16 19:10:24;;;;;;;26.80;14.90;;;;;;;;;;104484;1285;553866;-77
2023/10/16 19:24:27;;;;;;;31.70;19.20;;;;;;;;;;106785;1262;553314;-77
2023/10/16 19:27:15;;;;;;;37.00;23.80;;;;;;;;;;103689;1289;547934;-77
2023/10/16 19:41:16;;;;;;;24.60;14.20;;;;;;;;;;104441;1286;553806;-77
2023/10/16 19:44:15;;;;;;;27.10;17.80;;;;;;;;;;103993;1286;545332;-77
2023/10/16 19:48:06;;;;;;;18.00;10.90;;;;;;;;;;104314;1290;547552;-77
2023/10/16 19:51:27;;;;;;;16.10;9.70;;;;;;;;;;103825;1289;548013;-77
2023/10/16 19:55:04;;;;;;;14.10;8.10;;;;;;;;;;104063;1285;545637;-77
2023/10/16 20:09:29;;;;;;;11.40;5.80;;;;;;;;;;104668;1282;553618;-76
2023/10/16 20:22:49;;;;;;;14.00;7.80;;;;;;;;;;104596;1286;551265;-76
2023/10/16 20:25:43;;;;;;;15.10;8.60;;;;;;;;;;103561;1292;547756;-77
2023/10/16 20:29:14;;;;;;;13.60;6.70;;;;;;;;;;103818;1290;544832;-78
2023/10/16 20:32:56;;;;;;;11.40;5.70;;;;;;;;;;103566;1292;548147;-77
2023/10/16 20:36:35;;;;;;;11.80;5.00;;;;;;;;;;103466;1294;547793;-78
2023/10/16 20:40:24;;;;;;;10.00;4.40;;;;;;;;;;103818;1295;548001;-77
2023/10/16 20:54:08;;;;;;;8.30;3.60;;;;;;;;;;104607;1286;549783;-77
2023/10/16 20:56:58;;;;;;;8.60;3.70;;;;;;;;;;103642;1295;544904;-78
2023/10/16 21:00:41;;;;;;;9.40;4.60;;;;;;;;;;103496;1294;548362;-77
2023/10/16 21:04:18;;;;;;;9.80;4.30;;;;;;;;;;103590;1291;547980;-78
2023/10/16 21:07:58;;;;;;;10.40;4.10;;;;;;;;;;103608;1293;548382;-77
2023/10/16 21:11:33;;;;;;;8.40;3.60;;;;;;;;;;103595;1295;545395;-77
2023/10/16 21:15:13;;;;;;;10.00;3.70;;;;;;;;;;103691;1292;547979;-77
2023/10/16 21:18:48;;;;;;;9.70;3.50;;;;;;;;;;103560;1292;547771;-77
2023/10/16 21:22:29;;;;;;;8.80;3.90;;;;;;;;;;103464;1292;547818;-78
2023/10/16 21:26:19;;;;;;;9.00;3.50;;;;;;;;;;103713;1293;547946;-77
2023/10/16 21:29:35;;;;;;;9.60;3.90;;;;;;;;;;103740;1289;545341;-77
2023/10/16 21:33:12;;;;;;;8.60;3.40;;;;;;;;;;103497;1293;545050;-77
2023/10/16 21:36:50;;;;;;;8.30;2.80;;;;;;;;;;103784;1289;545051;-78
2023/10/16 21:40:27;;;;;;;10.40;3.70;;;;;;;;;;103725;1290;545641;-77
2023/10/16 21:44:10;;;;;;;9.90;3.70;;;;;;;;;;103542;1289;547791;-78
2023/10/16 21:47:48;;;;;;;8.50;3.60;;;;;;;;;;103713;1292;548036;-78
2023/10/16 21:51:26;;;;;;;7.80;3.40;;;;;;;;;;103491;1291;548084;-77
2023/10/16 21:54:57;;;;;;;7.40;2.80;;;;;;;;;;103990;1289;545013;-78
2023/10/16 21:58:40;;;;;;;7.60;3.10;;;;;;;;;;103466;1302;547971;-78
2023/10/16 22:02:21;;;;;;;8.60;3.60;;;;;;;;;;103700;1292;545412;-77
2023/10/16 22:05:50;;;;;;;9.30;3.80;;;;;;;;;;103791;1290;544873;-78
2023/10/16 22:09:30;;;;;;;9.30;3.60;;;;;;;;;;103506;1300;544833;-77
2023/10/16 22:13:05;;;;;;;10.10;4.00;;;;;;;;;;103958;1295;545245;-78
2023/10/16 22:16:42;;;;;;;10.00;3.90;;;;;;;;;;103743;1289;544966;-77
2023/10/16 22:20:23;;;;;;;11.50;4.50;;;;;;;;;;103742;1292;545450;-77
2023/10/16 22:23:57;;;;;;;12.50;4.70;;;;;;;;;;103725;1292;545762;-78
2023/10/16 22:27:40;;;;;;;12.50;5.40;;;;;;;;;;103584;1292;547909;-78
2023/10/16 22:31:12;;;;;;;11.90;4.90;;;;;;;;;;103795;1289;545924;-78
2023/10/16 22:34:49;;;;;;;11.10;5.00;;;;;;;;;;103661;1292;545332;-77
2023/10/16 22:38:27;;;;;;;12.30;4.90;;;;;;;;;;103745;1290;544864;-77
2023/10/16 22:42:10;;;;;;;10.60;4.20;;;;;;;;;;103552;1291;547882;-77
2023/10/16 22:45:47;;;;;;;11.30;4.60;;;;;;;;;;103762;1295;547954;-77
2023/10/16 22:49:26;;;;;;;10.80;4.30;;;;;;;;;;103470;1292;547808;-78
2023/10/16 22:53:02;;;;;;;9.00;3.90;;;;;;;;;;103656;1289;547873;-77
2023/10/16 22:56:41;;;;;;;8.20;3.20;;;;;;;;;;104021;1286;547795;-77
2023/10/16 23:00:12;;;;;;;9.10;3.80;;;;;;;;;;103650;1292;545605;-78
2023/10/16 23:03:48;;;;;;;8.50;3.10;;;;;;;;;;103748;1289;544973;-77
2023/10/16 23:07:26;;;;;;;8.30;3.70;;;;;;;;;;103835;1289;544977;-77
2023/10/16 23:11:17;;;;;;;10.00;3.90;;;;;;;;;;103393;1298;548078;-77
2023/10/16 23:14:41;;;;;;;8.50;3.50;;;;;;;;;;104231;1286;544911;-77
2023/10/16 23:18:26;;;;;;;9.00;3.90;;;;;;;;;;103792;1288;546732;-77
2023/10/16 23:21:59;;;;;;;9.30;4.40;;;;;;;;;;103690;1295;544957;-77
2023/10/16 23:25:41;;;;;;;9.60;4.70;;;;;;;;;;103500;1295;547803;-77
2023/10/16 23:29:17;;;;;;;10.40;5.10;;;;;;;;;;103636;1291;548008;-77
2023/10/16 23:32:50;;;;;;;10.30;5.60;;;;;;;;;;103760;1292;544820;-77
2023/10/16 23:36:26;;;;;;;10.50;5.90;;;;;;;;;;103816;1290;546464;-77
2023/10/16 23:40:41;;;;;;;13.20;5.60;;;;;;;;;;103572;1291;547764;-78
2023/10/16 23:47:24;;;;;;;8.90;4.60;;;;;;;;;;103491;1293;547793;-77
2023/10/16 23:51:12;;;;;;;9.90;4.20;;;;;;;;;;103603;1291;548108;-77
2023/10/16 23:54:39;;;;;;;8.30;3.90;;;;;;;;;;103656;1289;548217;-78
2023/10/16 23:58:19;;;;;;;8.90;4.20;;;;;;;;;;103981;1287;547747;-77
